createdAt,value
2023-07-30T00:02:01.042Z,27.00
2023-07-30T00:04:28.823Z,26.90
2023-07-30T00:06:56.763Z,27.00
2023-07-30T00:09:24.786Z,27.10
2023-07-30T00:11:52.690Z,27.10
2023-07-30T00:14:21.001Z,27.10
2023-07-30T00:16:48.633Z,27.00
2023-07-30T00:19:16.699Z,26.90
2023-07-30T00:21:47.989Z,26.90
2023-07-30T00:24:16.143Z,27.00
2023-07-30T00:26:44.449Z,27.00
2023-07-30T00:29:12.498Z,26.90
2023-07-30T00:32:18.284Z,27.00
2023-07-30T00:34:46.521Z,27.00
2023-07-30T00:37:14.272Z,27.20
2023-07-30T00:39:42.068Z,27.10
2023-07-30T00:42:09.786Z,27.10
2023-07-30T00:44:37.461Z,27.10
2023-07-30T00:47:05.969Z,27.00
2023-07-30T00:49:34.314Z,27.00
2023-07-30T00:52:02.568Z,26.80
2023-07-30T00:54:30.558Z,26.60
2023-07-30T00:56:58.487Z,26.60
2023-07-30T00:59:26.585Z,26.60
2023-07-30T01:01:54.832Z,26.50
2023-07-30T01:04:23.499Z,26.70
2023-07-30T01:06:51.304Z,26.60
2023-07-30T01:09:19.031Z,26.60
2023-07-30T01:11:47.208Z,26.70
2023-07-30T01:14:15.807Z,26.70
2023-07-30T01:16:43.917Z,26.70
2023-07-30T01:19:11.843Z,26.70
2023-07-30T01:21:39.885Z,26.70
2023-07-30T01:24:07.887Z,26.70
2023-07-30T01:26:55.087Z,26.60
2023-07-30T01:29:44.391Z,26.70
2023-07-30T01:32:15.040Z,26.60
2023-07-30T01:34:44.685Z,26.60
2023-07-30T01:37:15.467Z,26.70
2023-07-30T01:39:45.564Z,26.80
2023-07-30T01:42:17.398Z,26.90
2023-07-30T01:44:45.483Z,26.90
2023-07-30T01:47:13.487Z,26.90
2023-07-30T01:49:41.494Z,27.00
2023-07-30T01:52:09.213Z,27.00
2023-07-30T01:54:37.017Z,26.90
2023-07-30T01:57:05.370Z,26.80
2023-07-30T01:59:33.070Z,26.80
2023-07-30T02:02:00.813Z,26.70
2023-07-30T02:04:28.676Z,26.70
2023-07-30T02:06:56.593Z,26.60
2023-07-30T02:09:24.331Z,26.60
2023-07-30T02:11:52.694Z,26.60
2023-07-30T02:14:20.552Z,26.60
2023-07-30T02:16:48.276Z,26.60
2023-07-30T02:19:16.557Z,26.60
2023-07-30T02:21:44.461Z,26.60
2023-07-30T02:24:13.293Z,26.50
2023-07-30T02:26:41.320Z,26.20
2023-07-30T02:29:09.097Z,26.00
2023-07-30T02:31:37.148Z,26.00
2023-07-30T02:34:05.102Z,25.90
2023-07-30T02:36:33.197Z,25.90
2023-07-30T02:39:00.945Z,25.90
2023-07-30T02:41:28.653Z,25.80
2023-07-30T02:43:56.357Z,25.80
2023-07-30T02:46:24.030Z,25.80
2023-07-30T02:48:51.711Z,25.80
2023-07-30T02:51:19.321Z,25.90
2023-07-30T02:53:46.976Z,25.70
2023-07-30T02:56:14.942Z,25.90
2023-07-30T02:58:42.761Z,25.90
2023-07-30T03:01:11.101Z,25.70
2023-07-30T03:03:38.880Z,25.80
2023-07-30T03:06:06.797Z,25.70
2023-07-30T03:08:34.540Z,25.70
2023-07-30T03:11:02.437Z,25.70
2023-07-30T03:13:30.077Z,25.60
2023-07-30T03:15:57.858Z,25.60
2023-07-30T03:18:25.599Z,25.50
2023-07-30T03:20:53.256Z,25.60
2023-07-30T03:23:21.039Z,25.60
2023-07-30T03:25:48.722Z,25.50
2023-07-30T03:28:16.597Z,25.60
2023-07-30T03:30:44.341Z,25.50
2023-07-30T03:33:12.038Z,25.60
2023-07-30T03:35:39.746Z,25.50
2023-07-30T03:38:07.563Z,25.60
2023-07-30T03:40:35.243Z,25.70
2023-07-30T03:43:02.941Z,25.70
2023-07-30T03:45:30.722Z,25.70
2023-07-30T03:47:58.505Z,25.60
2023-07-30T03:50:26.323Z,25.60
2023-07-30T03:52:54.471Z,25.70
2023-07-30T03:55:22.322Z,25.70
2023-07-30T03:57:50.024Z,25.70
2023-07-30T04:00:18.158Z,25.70
2023-07-30T04:02:45.951Z,25.70
2023-07-30T04:05:15.463Z,25.60
2023-07-30T04:07:44.763Z,25.60
2023-07-30T04:10:12.496Z,25.70
2023-07-30T04:12:40.195Z,25.70
2023-07-30T04:15:08.458Z,25.80
2023-07-30T04:17:39.312Z,26.00
2023-07-30T04:20:07.603Z,26.10
2023-07-30T04:22:35.279Z,26.20
2023-07-30T04:25:03.140Z,26.10
2023-07-30T04:27:32.493Z,26.20
2023-07-30T04:30:02.049Z,26.20
2023-07-30T04:32:29.860Z,26.30
2023-07-30T04:34:57.654Z,26.30
2023-07-30T04:37:25.523Z,26.40
2023-07-30T04:39:53.210Z,26.20
2023-07-30T04:42:20.942Z,26.40
2023-07-30T04:44:48.747Z,26.30
2023-07-30T04:47:16.452Z,26.40
2023-07-30T04:49:44.246Z,26.30
2023-07-30T04:52:12.372Z,26.30
2023-07-30T04:54:40.173Z,26.20
2023-07-30T04:57:08.072Z,26.20
2023-07-30T04:59:35.872Z,26.20
2023-07-30T05:02:03.994Z,26.30
2023-07-30T05:04:31.761Z,26.30
2023-07-30T05:06:59.417Z,26.50
2023-07-30T05:09:28.064Z,26.50
2023-07-30T05:11:55.701Z,26.70
2023-07-30T05:14:25.286Z,26.70
2023-07-30T05:16:52.925Z,26.80
2023-07-30T05:19:20.660Z,27.00
2023-07-30T05:21:48.625Z,27.00
2023-07-30T05:24:16.541Z,27.00
2023-07-30T05:26:44.528Z,26.90
2023-07-30T05:29:12.424Z,26.90
2023-07-30T05:31:40.510Z,26.90
2023-07-30T05:34:08.613Z,27.00
2023-07-30T05:36:36.392Z,27.10
2023-07-30T05:39:04.447Z,27.00
2023-07-30T05:41:32.174Z,27.30
2023-07-30T05:44:00.015Z,27.20
2023-07-30T05:46:27.774Z,27.50
2023-07-30T05:48:55.521Z,27.60
2023-07-30T05:51:23.491Z,27.70
2023-07-30T05:53:51.408Z,27.90
2023-07-30T05:56:20.524Z,28.00
2023-07-30T05:58:48.485Z,28.10
2023-07-30T06:01:16.544Z,28.10
2023-07-30T06:03:44.470Z,28.20
2023-07-30T06:06:12.374Z,28.30
2023-07-30T06:08:39.996Z,28.40
2023-07-30T06:11:07.764Z,28.60
2023-07-30T06:13:35.587Z,28.70
2023-07-30T06:16:03.638Z,28.70
2023-07-30T06:18:31.419Z,28.90
2023-07-30T06:20:59.130Z,29.10
2023-07-30T06:23:26.730Z,29.20
2023-07-30T06:25:54.429Z,29.30
2023-07-30T06:28:22.187Z,29.60
2023-07-30T06:30:49.818Z,29.80
2023-07-30T06:33:17.698Z,29.90
2023-07-30T06:35:45.410Z,29.90
2023-07-30T06:38:13.205Z,30.10
2023-07-30T06:40:40.878Z,30.20
2023-07-30T06:43:08.547Z,30.40
2023-07-30T06:45:36.394Z,30.50
2023-07-30T06:48:04.223Z,30.40
2023-07-30T06:50:31.866Z,30.50
2023-07-30T06:52:59.530Z,30.60
2023-07-30T06:55:27.726Z,30.10
2023-07-30T06:57:55.487Z,30.20
2023-07-30T07:00:23.278Z,30.70
2023-07-30T07:02:51.721Z,31.00
2023-07-30T07:05:19.480Z,30.60
2023-07-30T07:07:47.861Z,30.50
2023-07-30T07:10:16.622Z,30.40
2023-07-30T07:12:44.445Z,30.80
2023-07-30T07:15:12.578Z,30.80
2023-07-30T07:17:41.264Z,31.00
2023-07-30T07:20:09.450Z,31.40
2023-07-30T07:22:37.101Z,31.70
2023-07-30T07:25:05.163Z,32.00
2023-07-30T07:27:32.739Z,32.20
2023-07-30T07:30:03.428Z,32.00
2023-07-30T07:32:31.162Z,32.20
2023-07-30T07:34:58.911Z,32.30
2023-07-30T07:37:26.540Z,32.60
2023-07-30T07:39:54.574Z,32.70
2023-07-30T07:42:22.106Z,32.90
2023-07-30T07:44:49.765Z,32.90
2023-07-30T07:47:17.831Z,32.80
2023-07-30T07:49:46.543Z,33.00
2023-07-30T07:52:14.561Z,33.10
2023-07-30T07:54:43.528Z,33.10
2023-07-30T07:57:11.456Z,33.10
2023-07-30T07:59:39.252Z,33.20
2023-07-30T08:02:07.587Z,33.40
2023-07-30T08:04:35.665Z,33.60
2023-07-30T08:07:05.498Z,33.80
2023-07-30T08:09:33.689Z,33.70
2023-07-30T08:12:02.707Z,33.70
2023-07-30T08:14:31.754Z,33.90
2023-07-30T08:16:59.697Z,33.90
2023-07-30T08:19:27.684Z,34.00
2023-07-30T08:21:58.051Z,34.10
2023-07-30T08:24:25.854Z,34.30
2023-07-30T08:26:53.704Z,34.50
2023-07-30T08:29:21.431Z,34.50
2023-07-30T08:31:49.535Z,34.60
2023-07-30T08:34:17.361Z,34.70
2023-07-30T08:36:45.566Z,34.90
2023-07-30T08:39:13.404Z,34.90
2023-07-30T08:41:41.622Z,35.10
2023-07-30T08:44:11.532Z,35.00
2023-07-30T08:46:40.549Z,35.10
2023-07-30T08:49:08.618Z,35.10
2023-07-30T08:51:41.271Z,35.20
2023-07-30T08:54:11.093Z,35.20
2023-07-30T08:56:38.774Z,35.40
2023-07-30T08:59:07.609Z,35.40
2023-07-30T09:01:41.214Z,35.70
2023-07-30T09:04:10.596Z,35.70
2023-07-30T09:06:40.525Z,35.50
2023-07-30T09:09:11.442Z,35.80
2023-07-30T09:11:39.775Z,35.80
2023-07-30T09:14:09.190Z,35.90
2023-07-30T09:16:37.053Z,36.00
2023-07-30T09:19:04.866Z,36.40
2023-07-30T09:21:36.958Z,36.30
2023-07-30T09:24:07.341Z,36.50
2023-07-30T09:26:54.918Z,36.60
2023-07-30T09:29:22.768Z,36.50
2023-07-30T09:31:53.015Z,36.60
2023-07-30T09:34:21.625Z,36.70
2023-07-30T09:36:54.673Z,36.80
2023-07-30T09:39:27.803Z,36.60
2023-07-30T09:42:02.509Z,35.90
2023-07-30T09:44:33.606Z,35.70
2023-07-30T09:47:07.239Z,35.70
2023-07-30T09:49:36.523Z,35.80
2023-07-30T09:52:07.041Z,35.70
2023-07-30T09:54:35.342Z,35.50
2023-07-30T09:57:03.302Z,35.60
2023-07-30T09:59:31.830Z,35.50
2023-07-30T10:02:01.943Z,35.60
2023-07-30T10:04:32.280Z,35.50
2023-07-30T10:07:11.086Z,35.60
2023-07-30T10:09:45.646Z,35.70
2023-07-30T10:12:18.046Z,35.70
2023-07-30T10:14:46.279Z,35.30
2023-07-30T10:17:14.580Z,35.20
2023-07-30T10:19:42.430Z,35.10
2023-07-30T10:22:13.655Z,35.00
2023-07-30T10:24:42.481Z,34.90
2023-07-30T10:27:14.651Z,34.80
2023-07-30T10:29:42.943Z,34.80
2023-07-30T10:32:10.965Z,34.80
2023-07-30T10:34:49.504Z,35.00
2023-07-30T10:37:20.811Z,34.90
2023-07-30T10:39:52.051Z,34.90
2023-07-30T10:42:20.787Z,34.90
2023-07-30T10:44:48.782Z,34.80
2023-07-30T10:47:30.978Z,34.90
2023-07-30T10:50:05.578Z,35.10
2023-07-30T10:52:33.421Z,35.30
2023-07-30T10:55:02.263Z,35.60
2023-07-30T10:57:33.547Z,35.70
2023-07-30T11:00:01.834Z,35.90
2023-07-30T11:02:31.295Z,36.20
2023-07-30T11:04:59.598Z,36.30
2023-07-30T11:07:27.529Z,36.30
2023-07-30T11:10:02.937Z,36.00
2023-07-30T11:12:30.802Z,35.70
2023-07-30T11:15:03.767Z,35.80
2023-07-30T11:17:32.169Z,35.80
2023-07-30T11:20:00.299Z,36.10
2023-07-30T11:22:34.518Z,36.10
2023-07-30T11:25:10.531Z,36.40
2023-07-30T11:27:52.820Z,36.00
2023-07-30T11:30:20.904Z,36.20
2023-07-30T11:32:49.056Z,36.10
2023-07-30T11:35:18.730Z,36.30
2023-07-30T11:37:46.752Z,36.40
2023-07-30T11:40:14.925Z,36.30
2023-07-30T11:42:44.616Z,36.70
2023-07-30T11:45:21.121Z,36.90
2023-07-30T11:47:50.592Z,37.00
2023-07-30T11:50:18.511Z,37.00
2023-07-30T11:53:04.564Z,36.60
2023-07-30T11:55:40.525Z,36.00
2023-07-30T11:58:09.361Z,35.70
2023-07-30T12:00:39.561Z,35.50
2023-07-30T12:03:11.054Z,35.70
2023-07-30T12:05:40.766Z,36.00
2023-07-30T12:08:16.018Z,35.80
2023-07-30T12:10:53.601Z,35.80
2023-07-30T12:13:21.805Z,35.80
2023-07-30T12:15:57.625Z,36.20
2023-07-30T12:18:26.843Z,36.20
2023-07-30T12:20:55.185Z,36.40
2023-07-30T12:23:23.491Z,36.50
2023-07-30T12:25:52.869Z,36.40
2023-07-30T12:28:20.646Z,36.80
2023-07-30T12:30:48.616Z,36.90
2023-07-30T12:33:16.611Z,37.00
2023-07-30T12:35:47.364Z,36.70
2023-07-30T12:38:16.328Z,36.50
2023-07-30T12:40:44.193Z,36.60
2023-07-30T12:43:12.147Z,36.60
2023-07-30T12:45:40.722Z,36.70
2023-07-30T12:48:09.682Z,36.70
2023-07-30T12:50:37.653Z,36.80
2023-07-30T12:53:05.495Z,36.90
2023-07-30T12:55:33.623Z,37.00
2023-07-30T12:58:01.626Z,37.20
2023-07-30T13:00:29.842Z,37.30
2023-07-30T13:02:58.962Z,37.30
2023-07-30T13:05:27.623Z,37.20
2023-07-30T13:07:55.682Z,37.10
2023-07-30T13:10:23.492Z,36.90
2023-07-30T13:12:51.766Z,37.20
2023-07-30T13:15:20.046Z,37.20
2023-07-30T13:17:48.074Z,37.20
2023-07-30T13:20:18.277Z,37.30
2023-07-30T13:22:47.609Z,37.40
2023-07-30T13:25:15.217Z,37.30
2023-07-30T13:27:43.236Z,37.00
2023-07-30T13:30:11.547Z,37.40
2023-07-30T13:32:39.513Z,37.60
2023-07-30T13:35:07.453Z,37.60
2023-07-30T13:37:35.478Z,37.50
2023-07-30T13:40:03.459Z,37.60
2023-07-30T13:42:31.188Z,37.40
2023-07-30T13:44:59.051Z,37.70
2023-07-30T13:47:27.032Z,37.80
2023-07-30T13:49:55.744Z,37.70
2023-07-30T13:52:23.507Z,37.90
2023-07-30T13:54:51.329Z,38.20
2023-07-30T13:57:25.852Z,38.30
2023-07-30T13:59:54.647Z,38.30
2023-07-30T14:02:22.738Z,38.40
2023-07-30T14:04:50.594Z,38.90
2023-07-30T14:07:18.850Z,39.10
2023-07-30T14:09:46.713Z,39.40
2023-07-30T14:12:14.612Z,39.50
2023-07-30T14:14:42.480Z,39.00
2023-07-30T14:17:10.690Z,38.80
2023-07-30T14:19:38.554Z,39.30
2023-07-30T14:22:06.718Z,39.30
2023-07-30T14:24:35.946Z,39.40
2023-07-30T14:27:03.798Z,39.60
2023-07-30T14:29:31.732Z,39.70
2023-07-30T14:31:59.826Z,39.30
2023-07-30T14:34:27.981Z,39.50
2023-07-30T14:36:55.858Z,39.30
2023-07-30T14:39:23.823Z,39.30
2023-07-30T14:41:51.573Z,39.40
2023-07-30T14:44:20.441Z,39.60
2023-07-30T14:46:48.483Z,39.60
2023-07-30T14:49:16.539Z,39.30
2023-07-30T14:51:44.427Z,39.30
2023-07-30T14:54:12.247Z,39.40
2023-07-30T14:56:40.359Z,39.30
2023-07-30T14:59:08.740Z,39.40
2023-07-30T15:01:36.918Z,39.50
2023-07-30T15:04:06.007Z,39.20
2023-07-30T15:06:34.203Z,39.20
2023-07-30T15:09:02.629Z,39.50
2023-07-30T15:11:30.424Z,39.30
2023-07-30T15:13:58.560Z,39.40
2023-07-30T15:16:26.506Z,39.30
2023-07-30T15:18:54.456Z,39.00
2023-07-30T15:21:22.502Z,38.80
2023-07-30T15:23:50.291Z,38.50
2023-07-30T15:26:18.394Z,38.50
2023-07-30T15:28:46.236Z,38.20
2023-07-30T15:31:15.416Z,38.10
2023-07-30T15:33:43.393Z,38.10
2023-07-30T15:36:11.572Z,38.10
2023-07-30T15:38:39.394Z,38.10
2023-07-30T15:41:07.284Z,38.20
2023-07-30T15:43:35.242Z,38.20
2023-07-30T15:46:03.582Z,38.00
2023-07-30T15:48:31.967Z,38.20
2023-07-30T15:51:04.293Z,38.20
2023-07-30T15:53:32.516Z,38.00
2023-07-30T15:56:05.034Z,37.80
2023-07-30T15:58:33.215Z,37.80
2023-07-30T16:01:13.591Z,37.80
2023-07-30T16:03:42.091Z,38.00
2023-07-30T16:06:10.318Z,37.70
2023-07-30T16:08:38.987Z,38.00
2023-07-30T16:11:13.116Z,37.80
2023-07-30T16:13:41.286Z,37.90
2023-07-30T16:16:14.643Z,38.10
2023-07-30T16:18:45.510Z,38.20
2023-07-30T16:21:13.389Z,37.90
2023-07-30T16:23:41.791Z,38.10
2023-07-30T16:26:10.412Z,38.10
2023-07-30T16:28:38.937Z,38.10
2023-07-30T16:31:06.904Z,38.10
2023-07-30T16:33:35.008Z,38.20
2023-07-30T16:36:05.624Z,38.50
2023-07-30T16:38:33.603Z,38.60
2023-07-30T16:41:04.052Z,38.60
2023-07-30T16:43:31.879Z,38.40
2023-07-30T16:46:05.115Z,38.40
2023-07-30T16:48:33.511Z,38.30
2023-07-30T16:51:01.374Z,38.10
2023-07-30T16:53:29.384Z,37.80
2023-07-30T16:55:58.135Z,37.80
2023-07-30T16:58:25.927Z,37.40
2023-07-30T17:01:02.999Z,37.20
2023-07-30T17:03:31.919Z,37.20
2023-07-30T17:06:01.607Z,37.10
2023-07-30T17:08:29.721Z,36.60
2023-07-30T17:10:58.054Z,36.40
2023-07-30T17:13:26.040Z,36.10
2023-07-30T17:15:53.927Z,35.50
2023-07-30T17:18:22.816Z,35.10
2023-07-30T17:20:58.775Z,35.00
2023-07-30T17:23:26.863Z,34.70
2023-07-30T17:26:00.511Z,34.50
2023-07-30T17:28:30.515Z,34.40
2023-07-30T17:30:58.562Z,34.20
2023-07-30T17:33:26.729Z,34.10
2023-07-30T17:35:55.034Z,33.90
2023-07-30T17:38:23.055Z,33.80
2023-07-30T17:40:54.504Z,33.80
2023-07-30T17:43:23.920Z,33.70
2023-07-30T17:45:52.183Z,33.70
2023-07-30T17:48:20.885Z,33.60
2023-07-30T17:50:49.845Z,33.50
2023-07-30T17:53:17.691Z,33.50
2023-07-30T17:55:45.689Z,33.50
2023-07-30T17:58:13.662Z,33.40
2023-07-30T18:00:45.549Z,33.30
2023-07-30T18:03:13.623Z,33.20
2023-07-30T18:05:48.788Z,32.20
2023-07-30T18:08:18.502Z,31.50
2023-07-30T18:10:49.858Z,31.10
2023-07-30T18:13:18.589Z,30.90
2023-07-30T18:16:05.619Z,30.70
2023-07-30T18:18:33.549Z,30.60
2023-07-30T18:21:01.513Z,30.50
2023-07-30T18:23:29.670Z,30.40
2023-07-30T18:25:57.710Z,30.30
2023-07-30T18:28:25.736Z,30.30
2023-07-30T18:30:53.632Z,30.30
2023-07-30T18:33:21.577Z,30.20
2023-07-30T18:35:49.568Z,30.20
2023-07-30T18:38:17.569Z,30.30
2023-07-30T18:40:45.514Z,30.20
2023-07-30T18:43:13.499Z,30.20
2023-07-30T18:45:41.535Z,30.20
2023-07-30T18:48:09.598Z,30.10
2023-07-30T18:50:38.168Z,30.20
2023-07-30T18:53:05.838Z,30.20
2023-07-30T18:55:53.485Z,30.20
2023-07-30T18:58:21.444Z,30.20
2023-07-30T19:00:51.960Z,30.20
2023-07-30T19:03:19.952Z,30.40
2023-07-30T19:06:00.744Z,30.30
2023-07-30T19:08:28.825Z,30.30
2023-07-30T19:10:56.560Z,30.20
2023-07-30T19:13:24.563Z,30.10
2023-07-30T19:15:52.444Z,30.10
2023-07-30T19:18:20.554Z,30.20
2023-07-30T19:20:48.585Z,30.20
2023-07-30T19:23:16.443Z,30.20
2023-07-30T19:25:52.463Z,30.10
2023-07-30T19:28:21.615Z,30.10
2023-07-30T19:30:49.547Z,30.20
2023-07-30T19:33:17.972Z,30.10
2023-07-30T19:35:51.183Z,30.00
2023-07-30T19:38:25.159Z,30.10
2023-07-30T19:40:56.804Z,30.00
2023-07-30T19:43:25.515Z,30.00
2023-07-30T19:45:54.607Z,30.00
2023-07-30T19:48:23.661Z,30.20
2023-07-30T19:50:53.443Z,30.10
2023-07-30T19:53:21.807Z,30.00
2023-07-30T19:55:50.068Z,29.90
2023-07-30T19:58:28.390Z,30.00
2023-07-30T20:01:01.878Z,30.00
2023-07-30T20:03:31.052Z,30.10
2023-07-30T20:06:03.631Z,30.20
2023-07-30T20:08:31.555Z,30.10
2023-07-30T20:11:00.876Z,30.10
2023-07-30T20:13:28.691Z,30.20
2023-07-30T20:15:57.104Z,30.20
2023-07-30T20:18:26.351Z,30.10
2023-07-30T20:20:54.457Z,30.20
2023-07-30T20:23:23.047Z,30.10
2023-07-30T20:25:50.748Z,30.20
2023-07-30T20:28:18.507Z,30.00
2023-07-30T20:30:46.468Z,30.00
2023-07-30T20:33:14.513Z,30.10
2023-07-30T20:35:42.314Z,30.10
2023-07-30T20:38:10.109Z,30.00
2023-07-30T20:40:37.896Z,30.20
2023-07-30T20:43:05.708Z,30.10
2023-07-30T20:45:34.236Z,30.00
2023-07-30T20:48:02.270Z,30.10
2023-07-30T20:50:30.159Z,30.00
2023-07-30T20:52:57.907Z,30.00
2023-07-30T20:55:26.511Z,29.90
2023-07-30T20:57:54.165Z,29.90
2023-07-30T21:00:21.884Z,29.80
2023-07-30T21:02:49.820Z,29.70
2023-07-30T21:05:17.875Z,29.70
2023-07-30T21:07:45.638Z,29.90
2023-07-30T21:10:13.307Z,29.80
2023-07-30T21:12:42.430Z,29.80
2023-07-30T21:15:11.922Z,29.60
2023-07-30T21:17:40.161Z,29.70
2023-07-30T21:20:08.674Z,29.60
2023-07-30T21:22:36.573Z,29.60
2023-07-30T21:25:06.086Z,29.60
2023-07-30T21:27:33.779Z,29.60
2023-07-30T21:30:02.634Z,29.50
2023-07-30T21:32:30.723Z,29.60
2023-07-30T21:34:59.534Z,29.60
2023-07-30T21:37:27.469Z,29.60
2023-07-30T21:40:02.161Z,29.50
2023-07-30T21:42:30.400Z,29.50
2023-07-30T21:44:58.580Z,29.50
2023-07-30T21:47:26.482Z,29.50
2023-07-30T21:49:54.445Z,29.60
2023-07-30T21:52:27.241Z,29.50
2023-07-30T21:54:57.563Z,29.50
2023-07-30T21:57:26.543Z,29.40
2023-07-30T21:59:54.867Z,29.40
2023-07-30T22:02:23.946Z,29.30
2023-07-30T22:04:51.848Z,29.30
2023-07-30T22:07:19.696Z,29.30
2023-07-30T22:09:47.589Z,29.40
2023-07-30T22:12:15.381Z,29.40
2023-07-30T22:14:43.036Z,29.40
2023-07-30T22:17:11.666Z,29.50
2023-07-30T22:19:39.457Z,29.40
2023-07-30T22:22:07.240Z,29.40
2023-07-30T22:24:35.213Z,29.40
2023-07-30T22:27:02.862Z,29.40
2023-07-30T22:29:31.861Z,29.40
2023-07-30T22:31:59.819Z,29.40
2023-07-30T22:34:27.624Z,29.40
2023-07-30T22:36:55.281Z,29.40
2023-07-30T22:39:23.004Z,29.50
2023-07-30T22:41:50.569Z,29.50
2023-07-30T22:44:18.381Z,29.40
2023-07-30T22:46:46.019Z,29.50
2023-07-30T22:49:13.624Z,29.60
2023-07-30T22:51:41.561Z,29.60
2023-07-30T22:54:09.369Z,29.70
2023-07-30T22:56:37.722Z,29.70
2023-07-30T22:59:05.999Z,29.80
2023-07-30T23:01:33.732Z,29.80
2023-07-30T23:04:01.334Z,29.70
2023-07-30T23:06:29.029Z,29.80
2023-07-30T23:08:56.632Z,29.80
2023-07-30T23:11:24.602Z,29.90
2023-07-30T23:13:52.370Z,30.00
2023-07-30T23:16:19.999Z,30.00
2023-07-30T23:18:47.911Z,30.00
2023-07-30T23:21:15.557Z,30.10
2023-07-30T23:23:44.927Z,30.10
2023-07-30T23:26:12.593Z,30.20
2023-07-30T23:28:40.560Z,30.20
2023-07-30T23:31:08.457Z,30.20
2023-07-30T23:33:36.057Z,30.20
2023-07-30T23:36:10.443Z,30.10
2023-07-30T23:38:38.523Z,30.00
2023-07-30T23:41:06.444Z,30.10
2023-07-30T23:43:34.463Z,30.00
2023-07-30T23:46:02.103Z,30.00
2023-07-30T23:48:29.873Z,29.90
2023-07-30T23:51:05.149Z,29.90
2023-07-30T23:53:33.497Z,29.90
2023-07-30T23:56:01.491Z,29.80
2023-07-30T23:58:29.508Z,29.70
